sensor_id;sensor_type;location;lat;lon;timestamp;P1;durP1;ratioP1;P2;durP2;ratioP2
59830;SDS011;45711;50.108;13.712;2023-09-18T00:01:38;10.43;;;5.55;;
59830;SDS011;45711;50.108;13.712;2023-09-18T00:04:05;10.43;;;6.07;;
59830;SDS011;45711;50.108;13.712;2023-09-18T00:06:30;10.32;;;5.25;;
59830;SDS011;45711;50.108;13.712;2023-09-18T00:08:57;10.93;;;4.40;;
59830;SDS011;45711;50.108;13.712;2023-09-18T00:11:23;5.75;;;4.50;;
59830;SDS011;45711;50.108;13.712;2023-09-18T00:13:50;6.60;;;4.50;;
59830;SDS011;45711;50.108;13.712;2023-09-18T00:16:15;6.90;;;4.25;;
59830;SDS011;45711;50.108;13.712;2023-09-18T00:18:42;4.75;;;4.00;;
59830;SDS011;45711;50.108;13.712;2023-09-18T00:21:08;8.68;;;4.35;;
59830;SDS011;45711;50.108;13.712;2023-09-18T00:23:35;5.97;;;4.47;;
59830;SDS011;45711;50.108;13.712;2023-09-18T00:26:00;6.35;;;4.03;;
59830;SDS011;45711;50.108;13.712;2023-09-18T00:28:26;6.63;;;4.35;;
59830;SDS011;45711;50.108;13.712;2023-09-18T00:30:53;7.00;;;3.70;;
59830;SDS011;45711;50.108;13.712;2023-09-18T00:33:18;4.82;;;3.25;;
59830;SDS011;45711;50.108;13.712;2023-09-18T00:35:45;7.05;;;3.95;;
59830;SDS011;45711;50.108;13.712;2023-09-18T00:38:11;7.20;;;3.60;;
59830;SDS011;45711;50.108;13.712;2023-09-18T00:40:37;5.53;;;3.38;;
59830;SDS011;45711;50.108;13.712;2023-09-18T00:43:03;7.60;;;3.75;;
59830;SDS011;45711;50.108;13.712;2023-09-18T00:45:28;10.27;;;4.57;;
59830;SDS011;45711;50.108;13.712;2023-09-18T00:47:55;7.35;;;4.57;;
59830;SDS011;45711;50.108;13.712;2023-09-18T00:50:21;6.80;;;4.38;;
59830;SDS011;45711;50.108;13.712;2023-09-18T00:52:47;13.95;;;5.70;;
59830;SDS011;45711;50.108;13.712;2023-09-18T00:55:14;10.95;;;6.63;;
59830;SDS011;45711;50.108;13.712;2023-09-18T00:57:40;13.10;;;8.43;;
59830;SDS011;45711;50.108;13.712;2023-09-18T01:00:07;12.63;;;7.15;;
59830;SDS011;45711;50.108;13.712;2023-09-18T01:02:34;11.50;;;7.55;;
59830;SDS011;45711;50.108;13.712;2023-09-18T01:05:01;10.93;;;6.70;;
59830;SDS011;45711;50.108;13.712;2023-09-18T01:07:27;12.18;;;6.75;;
59830;SDS011;45711;50.108;13.712;2023-09-18T01:09:53;6.47;;;5.35;;
59830;SDS011;45711;50.108;13.712;2023-09-18T01:12:21;12.50;;;4.45;;
59830;SDS011;45711;50.108;13.712;2023-09-18T01:14:55;7.63;;;5.70;;
59830;SDS011;45711;50.108;13.712;2023-09-18T01:17:27;6.38;;;3.80;;
59830;SDS011;45711;50.108;13.712;2023-09-18T01:19:54;6.63;;;3.53;;
59830;SDS011;45711;50.108;13.712;2023-09-18T01:22:21;9.32;;;3.90;;
59830;SDS011;45711;50.108;13.712;2023-09-18T01:24:48;9.23;;;5.20;;
59830;SDS011;45711;50.108;13.712;2023-09-18T01:27:14;6.57;;;5.07;;
59830;SDS011;45711;50.108;13.712;2023-09-18T01:29:44;6.65;;;5.13;;
59830;SDS011;45711;50.108;13.712;2023-09-18T01:32:09;9.65;;;4.90;;
59830;SDS011;45711;50.108;13.712;2023-09-18T01:34:36;9.00;;;4.47;;
59830;SDS011;45711;50.108;13.712;2023-09-18T01:37:06;6.28;;;3.75;;
59830;SDS011;45711;50.108;13.712;2023-09-18T01:39:34;5.97;;;4.10;;
59830;SDS011;45711;50.108;13.712;2023-09-18T01:42:02;5.88;;;3.60;;
59830;SDS011;45711;50.108;13.712;2023-09-18T01:44:30;9.98;;;3.92;;
59830;SDS011;45711;50.108;13.712;2023-09-18T01:46:56;5.45;;;3.47;;
59830;SDS011;45711;50.108;13.712;2023-09-18T01:49:26;5.60;;;3.70;;
59830;SDS011;45711;50.108;13.712;2023-09-18T01:51:53;10.57;;;4.60;;
59830;SDS011;45711;50.108;13.712;2023-09-18T01:54:18;6.53;;;4.47;;
59830;SDS011;45711;50.108;13.712;2023-09-18T01:56:44;7.07;;;5.28;;
59830;SDS011;45711;50.108;13.712;2023-09-18T01:59:11;7.10;;;5.72;;
59830;SDS011;45711;50.108;13.712;2023-09-18T02:01:36;7.05;;;5.45;;
59830;SDS011;45711;50.108;13.712;2023-09-18T02:04:03;7.85;;;4.88;;
59830;SDS011;45711;50.108;13.712;2023-09-18T02:06:29;8.35;;;5.65;;
59830;SDS011;45711;50.108;13.712;2023-09-18T02:08:54;11.25;;;5.43;;
59830;SDS011;45711;50.108;13.712;2023-09-18T02:11:20;10.32;;;5.07;;
59830;SDS011;45711;50.108;13.712;2023-09-18T02:13:46;5.78;;;3.42;;
59830;SDS011;45711;50.108;13.712;2023-09-18T02:16:13;7.93;;;3.85;;
59830;SDS011;45711;50.108;13.712;2023-09-18T02:18:38;8.93;;;4.50;;
59830;SDS011;45711;50.108;13.712;2023-09-18T02:21:04;7.10;;;4.47;;
59830;SDS011;45711;50.108;13.712;2023-09-18T02:23:29;7.47;;;4.47;;
59830;SDS011;45711;50.108;13.712;2023-09-18T02:25:55;8.55;;;4.20;;
59830;SDS011;45711;50.108;13.712;2023-09-18T02:28:21;11.60;;;5.35;;
59830;SDS011;45711;50.108;13.712;2023-09-18T02:30:46;9.77;;;6.45;;
59830;SDS011;45711;50.108;13.712;2023-09-18T02:33:14;7.70;;;5.75;;
59830;SDS011;45711;50.108;13.712;2023-09-18T02:35:40;9.85;;;5.10;;
59830;SDS011;45711;50.108;13.712;2023-09-18T02:38:06;30.98;;;8.23;;
59830;SDS011;45711;50.108;13.712;2023-09-18T02:40:31;10.23;;;5.28;;
59830;SDS011;45711;50.108;13.712;2023-09-18T02:42:57;9.18;;;4.15;;
59830;SDS011;45711;50.108;13.712;2023-09-18T02:45:22;6.32;;;4.47;;
59830;SDS011;45711;50.108;13.712;2023-09-18T02:47:48;7.97;;;4.40;;
59830;SDS011;45711;50.108;13.712;2023-09-18T02:50:15;5.85;;;3.63;;
59830;SDS011;45711;50.108;13.712;2023-09-18T02:52:40;5.75;;;3.65;;
59830;SDS011;45711;50.108;13.712;2023-09-18T02:55:06;9.10;;;4.25;;
59830;SDS011;45711;50.108;13.712;2023-09-18T02:57:34;5.60;;;4.38;;
59830;SDS011;45711;50.108;13.712;2023-09-18T03:00:00;5.78;;;3.50;;
59830;SDS011;45711;50.108;13.712;2023-09-18T03:02:26;7.50;;;4.45;;
59830;SDS011;45711;50.108;13.712;2023-09-18T03:04:51;7.90;;;4.22;;
59830;SDS011;45711;50.108;13.712;2023-09-18T03:07:18;14.05;;;5.10;;
59830;SDS011;45711;50.108;13.712;2023-09-18T03:09:43;6.95;;;4.22;;
59830;SDS011;45711;50.108;13.712;2023-09-18T03:12:09;7.63;;;3.80;;
59830;SDS011;45711;50.108;13.712;2023-09-18T03:14:35;5.53;;;3.90;;
59830;SDS011;45711;50.108;13.712;2023-09-18T03:17:00;7.05;;;3.70;;
59830;SDS011;45711;50.108;13.712;2023-09-18T03:19:26;6.05;;;3.78;;
59830;SDS011;45711;50.108;13.712;2023-09-18T03:21:52;7.25;;;4.13;;
59830;SDS011;45711;50.108;13.712;2023-09-18T03:24:19;7.20;;;4.00;;
59830;SDS011;45711;50.108;13.712;2023-09-18T03:26:44;9.20;;;4.72;;
59830;SDS011;45711;50.108;13.712;2023-09-18T03:29:10;8.95;;;5.25;;
59830;SDS011;45711;50.108;13.712;2023-09-18T03:31:35;7.68;;;5.15;;
59830;SDS011;45711;50.108;13.712;2023-09-18T03:34:01;14.02;;;5.88;;
59830;SDS011;45711;50.108;13.712;2023-09-18T03:36:26;11.82;;;5.70;;
59830;SDS011;45711;50.108;13.712;2023-09-18T03:38:52;10.60;;;5.32;;
59830;SDS011;45711;50.108;13.712;2023-09-18T03:41:19;9.85;;;6.10;;
59830;SDS011;45711;50.108;13.712;2023-09-18T03:43:44;13.13;;;5.47;;
59830;SDS011;45711;50.108;13.712;2023-09-18T03:46:10;8.98;;;5.40;;
59830;SDS011;45711;50.108;13.712;2023-09-18T03:48:36;11.68;;;6.18;;
59830;SDS011;45711;50.108;13.712;2023-09-18T03:51:02;8.55;;;5.38;;
59830;SDS011;45711;50.108;13.712;2023-09-18T03:53:28;6.25;;;4.72;;
59830;SDS011;45711;50.108;13.712;2023-09-18T03:55:54;9.05;;;5.03;;
59830;SDS011;45711;50.108;13.712;2023-09-18T03:58:21;7.93;;;4.43;;
59830;SDS011;45711;50.108;13.712;2023-09-18T04:00:47;12.95;;;4.30;;
59830;SDS011;45711;50.108;13.712;2023-09-18T04:03:12;6.97;;;4.25;;
59830;SDS011;45711;50.108;13.712;2023-09-18T04:05:38;10.50;;;4.93;;
59830;SDS011;45711;50.108;13.712;2023-09-18T04:08:04;10.05;;;6.15;;
59830;SDS011;45711;50.108;13.712;2023-09-18T04:10:29;21.75;;;5.82;;
59830;SDS011;45711;50.108;13.712;2023-09-18T04:12:55;8.57;;;5.43;;
59830;SDS011;45711;50.108;13.712;2023-09-18T04:15:22;8.13;;;5.90;;
59830;SDS011;45711;50.108;13.712;2023-09-18T04:17:48;13.27;;;6.30;;
59830;SDS011;45711;50.108;13.712;2023-09-18T04:20:14;26.17;;;7.93;;
59830;SDS011;45711;50.108;13.712;2023-09-18T04:22:42;12.10;;;6.32;;
59830;SDS011;45711;50.108;13.712;2023-09-18T04:25:10;11.55;;;5.15;;
59830;SDS011;45711;50.108;13.712;2023-09-18T04:27:35;21.45;;;5.68;;
59830;SDS011;45711;50.108;13.712;2023-09-18T04:30:01;20.77;;;6.30;;
59830;SDS011;45711;50.108;13.712;2023-09-18T04:32:28;49.50;;;6.15;;
59830;SDS011;45711;50.108;13.712;2023-09-18T04:34:54;41.80;;;6.40;;
59830;SDS011;45711;50.108;13.712;2023-09-18T04:37:20;60.15;;;8.15;;
59830;SDS011;45711;50.108;13.712;2023-09-18T04:39:45;35.17;;;6.40;;
59830;SDS011;45711;50.108;13.712;2023-09-18T04:42:11;20.33;;;6.68;;
59830;SDS011;45711;50.108;13.712;2023-09-18T04:44:37;17.33;;;6.80;;
59830;SDS011;45711;50.108;13.712;2023-09-18T04:47:02;8.18;;;6.05;;
59830;SDS011;45711;50.108;13.712;2023-09-18T04:49:29;10.70;;;6.22;;
59830;SDS011;45711;50.108;13.712;2023-09-18T04:51:55;10.82;;;6.70;;
59830;SDS011;45711;50.108;13.712;2023-09-18T04:54:20;19.00;;;6.40;;
59830;SDS011;45711;50.108;13.712;2023-09-18T04:56:46;25.33;;;6.63;;
59830;SDS011;45711;50.108;13.712;2023-09-18T04:59:11;20.80;;;5.82;;
59830;SDS011;45711;50.108;13.712;2023-09-18T05:01:37;13.38;;;5.63;;
59830;SDS011;45711;50.108;13.712;2023-09-18T05:04:03;65.25;;;7.00;;
59830;SDS011;45711;50.108;13.712;2023-09-18T05:06:30;16.38;;;6.60;;
59830;SDS011;45711;50.108;13.712;2023-09-18T05:08:55;34.17;;;5.72;;
59830;SDS011;45711;50.108;13.712;2023-09-18T05:11:22;46.88;;;6.25;;
59830;SDS011;45711;50.108;13.712;2023-09-18T05:13:48;76.00;;;8.80;;
59830;SDS011;45711;50.108;13.712;2023-09-18T05:16:14;135.15;;;11.93;;
59830;SDS011;45711;50.108;13.712;2023-09-18T05:18:40;42.70;;;6.45;;
59830;SDS011;45711;50.108;13.712;2023-09-18T05:21:08;30.30;;;5.90;;
59830;SDS011;45711;50.108;13.712;2023-09-18T05:23:36;20.00;;;8.02;;
59830;SDS011;45711;50.108;13.712;2023-09-18T05:26:01;9.82;;;7.15;;
59830;SDS011;45711;50.108;13.712;2023-09-18T05:28:28;12.95;;;8.80;;
59830;SDS011;45711;50.108;13.712;2023-09-18T05:30:53;17.77;;;7.70;;
59830;SDS011;45711;50.108;13.712;2023-09-18T05:33:20;11.43;;;6.43;;
59830;SDS011;45711;50.108;13.712;2023-09-18T05:35:45;10.10;;;6.03;;
59830;SDS011;45711;50.108;13.712;2023-09-18T05:38:11;8.70;;;6.07;;
59830;SDS011;45711;50.108;13.712;2023-09-18T05:40:44;8.90;;;5.22;;
59830;SDS011;45711;50.108;13.712;2023-09-18T05:43:10;9.48;;;4.60;;
59830;SDS011;45711;50.108;13.712;2023-09-18T05:45:36;8.38;;;5.10;;
59830;SDS011;45711;50.108;13.712;2023-09-18T05:48:02;11.57;;;5.30;;
59830;SDS011;45711;50.108;13.712;2023-09-18T05:50:31;17.90;;;5.88;;
59830;SDS011;45711;50.108;13.712;2023-09-18T05:52:57;10.50;;;5.03;;
59830;SDS011;45711;50.108;13.712;2023-09-18T05:55:28;8.85;;;5.35;;
59830;SDS011;45711;50.108;13.712;2023-09-18T05:57:55;12.10;;;6.45;;
59830;SDS011;45711;50.108;13.712;2023-09-18T06:00:22;12.25;;;5.43;;
59830;SDS011;45711;50.108;13.712;2023-09-18T06:02:48;17.63;;;5.28;;
59830;SDS011;45711;50.108;13.712;2023-09-18T06:05:16;14.02;;;5.70;;
59830;SDS011;45711;50.108;13.712;2023-09-18T06:07:42;16.05;;;6.60;;
59830;SDS011;45711;50.108;13.712;2023-09-18T06:10:08;11.73;;;5.25;;
59830;SDS011;45711;50.108;13.712;2023-09-18T06:12:37;14.43;;;5.55;;
59830;SDS011;45711;50.108;13.712;2023-09-18T06:15:05;13.98;;;5.38;;
59830;SDS011;45711;50.108;13.712;2023-09-18T06:17:33;9.85;;;5.03;;
59830;SDS011;45711;50.108;13.712;2023-09-18T06:19:58;6.57;;;4.78;;
59830;SDS011;45711;50.108;13.712;2023-09-18T06:22:24;13.05;;;5.10;;
59830;SDS011;45711;50.108;13.712;2023-09-18T06:24:49;9.65;;;5.00;;
59830;SDS011;45711;50.108;13.712;2023-09-18T06:27:15;12.20;;;5.50;;
59830;SDS011;45711;50.108;13.712;2023-09-18T06:29:40;10.05;;;5.43;;
59830;SDS011;45711;50.108;13.712;2023-09-18T06:32:09;25.90;;;6.10;;
59830;SDS011;45711;50.108;13.712;2023-09-18T06:34:35;11.82;;;4.75;;
59830;SDS011;45711;50.108;13.712;2023-09-18T06:37:00;8.52;;;5.00;;
59830;SDS011;45711;50.108;13.712;2023-09-18T06:39:26;24.27;;;5.10;;
59830;SDS011;45711;50.108;13.712;2023-09-18T06:41:51;9.98;;;5.03;;
59830;SDS011;45711;50.108;13.712;2023-09-18T06:44:17;11.15;;;4.63;;
59830;SDS011;45711;50.108;13.712;2023-09-18T06:46:42;10.88;;;4.90;;
59830;SDS011;45711;50.108;13.712;2023-09-18T06:49:09;17.63;;;4.93;;
59830;SDS011;45711;50.108;13.712;2023-09-18T06:51:35;10.68;;;5.13;;
59830;SDS011;45711;50.108;13.712;2023-09-18T06:54:00;9.48;;;4.93;;
59830;SDS011;45711;50.108;13.712;2023-09-18T06:56:27;10.65;;;4.75;;
59830;SDS011;45711;50.108;13.712;2023-09-18T06:58:53;8.98;;;4.68;;
59830;SDS011;45711;50.108;13.712;2023-09-18T07:01:20;10.90;;;4.63;;
59830;SDS011;45711;50.108;13.712;2023-09-18T07:03:46;10.85;;;5.35;;
59830;SDS011;45711;50.108;13.712;2023-09-18T07:06:13;10.13;;;4.57;;
59830;SDS011;45711;50.108;13.712;2023-09-18T07:08:41;11.23;;;4.43;;
59830;SDS011;45711;50.108;13.712;2023-09-18T07:11:07;9.25;;;5.00;;
59830;SDS011;45711;50.108;13.712;2023-09-18T07:13:32;11.35;;;4.35;;
59830;SDS011;45711;50.108;13.712;2023-09-18T07:15:58;9.68;;;4.88;;
59830;SDS011;45711;50.108;13.712;2023-09-18T07:18:23;6.78;;;4.57;;
59830;SDS011;45711;50.108;13.712;2023-09-18T07:20:49;5.38;;;3.60;;
59830;SDS011;45711;50.108;13.712;2023-09-18T07:23:16;5.20;;;4.05;;
59830;SDS011;45711;50.108;13.712;2023-09-18T07:25:41;10.55;;;4.75;;
59830;SDS011;45711;50.108;13.712;2023-09-18T07:28:08;9.75;;;4.60;;
59830;SDS011;45711;50.108;13.712;2023-09-18T07:30:35;14.05;;;4.97;;
59830;SDS011;45711;50.108;13.712;2023-09-18T07:33:02;15.65;;;5.60;;
59830;SDS011;45711;50.108;13.712;2023-09-18T07:35:28;21.85;;;5.13;;
59830;SDS011;45711;50.108;13.712;2023-09-18T07:37:54;17.42;;;5.25;;
59830;SDS011;45711;50.108;13.712;2023-09-18T07:40:24;11.63;;;4.90;;
59830;SDS011;45711;50.108;13.712;2023-09-18T07:42:49;15.10;;;5.13;;
59830;SDS011;45711;50.108;13.712;2023-09-18T07:45:15;25.25;;;5.05;;
59830;SDS011;45711;50.108;13.712;2023-09-18T07:47:40;11.30;;;4.13;;
59830;SDS011;45711;50.108;13.712;2023-09-18T07:50:06;11.07;;;4.43;;
59830;SDS011;45711;50.108;13.712;2023-09-18T07:52:32;8.43;;;4.65;;
59830;SDS011;45711;50.108;13.712;2023-09-18T07:54:58;7.28;;;4.88;;
59830;SDS011;45711;50.108;13.712;2023-09-18T07:57:25;10.55;;;5.28;;
59830;SDS011;45711;50.108;13.712;2023-09-18T07:59:53;14.80;;;5.10;;
59830;SDS011;45711;50.108;13.712;2023-09-18T08:02:19;13.60;;;4.63;;
59830;SDS011;45711;50.108;13.712;2023-09-18T08:04:44;6.85;;;3.75;;
59830;SDS011;45711;50.108;13.712;2023-09-18T08:07:10;12.63;;;4.40;;
59830;SDS011;45711;50.108;13.712;2023-09-18T08:09:37;8.10;;;3.95;;
59830;SDS011;45711;50.108;13.712;2023-09-18T08:12:04;6.97;;;2.97;;
59830;SDS011;45711;50.108;13.712;2023-09-18T08:14:31;15.98;;;4.53;;
59830;SDS011;45711;50.108;13.712;2023-09-18T08:17:00;6.07;;;3.55;;
59830;SDS011;45711;50.108;13.712;2023-09-18T08:19:26;12.88;;;4.68;;
59830;SDS011;45711;50.108;13.712;2023-09-18T08:21:52;8.07;;;4.25;;
59830;SDS011;45711;50.108;13.712;2023-09-18T08:24:18;10.15;;;3.72;;
59830;SDS011;45711;50.108;13.712;2023-09-18T08:26:44;13.38;;;4.57;;
59830;SDS011;45711;50.108;13.712;2023-09-18T08:29:09;6.70;;;2.83;;
59830;SDS011;45711;50.108;13.712;2023-09-18T08:31:36;4.82;;;3.47;;
59830;SDS011;45711;50.108;13.712;2023-09-18T08:34:02;7.20;;;3.33;;
59830;SDS011;45711;50.108;13.712;2023-09-18T08:36:27;17.00;;;4.88;;
59830;SDS011;45711;50.108;13.712;2023-09-18T08:38:55;10.55;;;4.55;;
59830;SDS011;45711;50.108;13.712;2023-09-18T08:41:21;9.10;;;4.72;;
59830;SDS011;45711;50.108;13.712;2023-09-18T08:43:52;6.20;;;3.92;;
59830;SDS011;45711;50.108;13.712;2023-09-18T08:46:21;6.97;;;3.72;;
59830;SDS011;45711;50.108;13.712;2023-09-18T08:48:48;7.70;;;4.20;;
59830;SDS011;45711;50.108;13.712;2023-09-18T08:51:15;11.85;;;4.43;;
59830;SDS011;45711;50.108;13.712;2023-09-18T08:53:44;10.27;;;4.40;;
59830;SDS011;45711;50.108;13.712;2023-09-18T08:56:11;4.88;;;3.53;;
59830;SDS011;45711;50.108;13.712;2023-09-18T08:58:39;10.48;;;4.50;;
59830;SDS011;45711;50.108;13.712;2023-09-18T09:01:07;13.48;;;4.03;;
59830;SDS011;45711;50.108;13.712;2023-09-18T09:03:34;9.18;;;4.18;;
59830;SDS011;45711;50.108;13.712;2023-09-18T09:06:02;11.00;;;4.30;;
59830;SDS011;45711;50.108;13.712;2023-09-18T09:08:28;7.43;;;4.10;;
59830;SDS011;45711;50.108;13.712;2023-09-18T09:10:58;6.07;;;3.75;;
59830;SDS011;45711;50.108;13.712;2023-09-18T09:13:24;7.90;;;3.30;;
59830;SDS011;45711;50.108;13.712;2023-09-18T09:15:54;7.68;;;4.10;;
59830;SDS011;45711;50.108;13.712;2023-09-18T09:18:22;6.20;;;3.70;;
59830;SDS011;45711;50.108;13.712;2023-09-18T09:20:55;8.65;;;4.65;;
59830;SDS011;45711;50.108;13.712;2023-09-18T09:23:29;9.52;;;3.90;;
59830;SDS011;45711;50.108;13.712;2023-09-18T09:26:13;5.28;;;3.38;;
59830;SDS011;45711;50.108;13.712;2023-09-18T09:28:40;8.88;;;4.50;;
59830;SDS011;45711;50.108;13.712;2023-09-18T09:31:08;4.80;;;3.28;;
59830;SDS011;45711;50.108;13.712;2023-09-18T09:33:35;6.85;;;3.47;;
59830;SDS011;45711;50.108;13.712;2023-09-18T09:36:03;7.97;;;3.70;;
59830;SDS011;45711;50.108;13.712;2023-09-18T09:38:36;9.52;;;3.63;;
59830;SDS011;45711;50.108;13.712;2023-09-18T09:41:02;5.53;;;3.33;;
59830;SDS011;45711;50.108;13.712;2023-09-18T09:43:32;4.10;;;3.20;;
59830;SDS011;45711;50.108;13.712;2023-09-18T09:45:58;8.32;;;3.22;;
59830;SDS011;45711;50.108;13.712;2023-09-18T09:48:25;5.65;;;3.30;;
59830;SDS011;45711;50.108;13.712;2023-09-18T09:50:51;10.25;;;4.10;;
59830;SDS011;45711;50.108;13.712;2023-09-18T09:56:13;6.05;;;4.10;;
59830;SDS011;45711;50.108;13.712;2023-09-18T09:58:39;5.45;;;3.17;;
59830;SDS011;45711;50.108;13.712;2023-09-18T10:01:09;5.68;;;3.20;;
59830;SDS011;45711;50.108;13.712;2023-09-18T10:03:42;6.85;;;4.07;;
59830;SDS011;45711;50.108;13.712;2023-09-18T10:06:10;13.00;;;4.20;;
59830;SDS011;45711;50.108;13.712;2023-09-18T10:08:41;8.98;;;3.97;;
59830;SDS011;45711;50.108;13.712;2023-09-18T10:11:09;8.82;;;4.00;;
59830;SDS011;45711;50.108;13.712;2023-09-18T10:13:43;14.23;;;3.97;;
59830;SDS011;45711;50.108;13.712;2023-09-18T10:16:12;5.60;;;3.90;;
59830;SDS011;45711;50.108;13.712;2023-09-18T10:18:42;8.30;;;4.00;;
59830;SDS011;45711;50.108;13.712;2023-09-18T10:21:20;10.57;;;4.07;;
59830;SDS011;45711;50.108;13.712;2023-09-18T10:23:58;6.25;;;3.58;;
59830;SDS011;45711;50.108;13.712;2023-09-18T10:26:31;7.90;;;3.70;;
59830;SDS011;45711;50.108;13.712;2023-09-18T10:29:03;8.88;;;3.75;;
59830;SDS011;45711;50.108;13.712;2023-09-18T10:31:34;8.63;;;4.00;;
59830;SDS011;45711;50.108;13.712;2023-09-18T10:34:02;6.35;;;3.67;;
59830;SDS011;45711;50.108;13.712;2023-09-18T10:36:31;7.63;;;3.67;;
59830;SDS011;45711;50.108;13.712;2023-09-18T10:38:59;8.60;;;3.80;;
59830;SDS011;45711;50.108;13.712;2023-09-18T10:41:25;35.67;;;5.35;;
59830;SDS011;45711;50.108;13.712;2023-09-18T10:43:55;8.57;;;3.70;;
59830;SDS011;45711;50.108;13.712;2023-09-18T10:46:23;8.32;;;3.72;;
59830;SDS011;45711;50.108;13.712;2023-09-18T10:48:50;4.50;;;3.53;;
59830;SDS011;45711;50.108;13.712;2023-09-18T10:51:19;6.70;;;3.70;;
59830;SDS011;45711;50.108;13.712;2023-09-18T10:53:46;10.65;;;3.72;;
59830;SDS011;45711;50.108;13.712;2023-09-18T10:56:14;7.80;;;3.47;;
59830;SDS011;45711;50.108;13.712;2023-09-18T10:58:40;7.53;;;3.50;;
59830;SDS011;45711;50.108;13.712;2023-09-18T11:01:10;8.15;;;3.50;;
59830;SDS011;45711;50.108;13.712;2023-09-18T11:03:37;5.00;;;3.65;;
59830;SDS011;45711;50.108;13.712;2023-09-18T11:06:03;8.43;;;3.58;;
59830;SDS011;45711;50.108;13.712;2023-09-18T11:08:32;7.22;;;3.47;;
59830;SDS011;45711;50.108;13.712;2023-09-18T11:11:00;9.70;;;4.03;;
59830;SDS011;45711;50.108;13.712;2023-09-18T11:13:30;6.85;;;4.38;;
59830;SDS011;45711;50.108;13.712;2023-09-18T11:15:59;5.00;;;3.17;;
59830;SDS011;45711;50.108;13.712;2023-09-18T11:18:33;12.27;;;4.18;;
59830;SDS011;45711;50.108;13.712;2023-09-18T11:21:08;9.60;;;3.80;;
59830;SDS011;45711;50.108;13.712;2023-09-18T11:23:35;4.35;;;3.80;;
59830;SDS011;45711;50.108;13.712;2023-09-18T11:26:10;5.25;;;3.50;;
59830;SDS011;45711;50.108;13.712;2023-09-18T11:28:36;9.80;;;3.88;;
59830;SDS011;45711;50.108;13.712;2023-09-18T11:31:03;11.73;;;3.92;;
59830;SDS011;45711;50.108;13.712;2023-09-18T11:33:29;7.03;;;3.50;;
59830;SDS011;45711;50.108;13.712;2023-09-18T11:35:57;11.18;;;3.38;;
59830;SDS011;45711;50.108;13.712;2023-09-18T11:38:24;5.80;;;3.40;;
59830;SDS011;45711;50.108;13.712;2023-09-18T11:40:49;4.28;;;3.22;;
59830;SDS011;45711;50.108;13.712;2023-09-18T11:43:19;8.05;;;3.40;;
59830;SDS011;45711;50.108;13.712;2023-09-18T11:45:51;5.60;;;3.60;;
59830;SDS011;45711;50.108;13.712;2023-09-18T11:48:18;5.45;;;3.45;;
59830;SDS011;45711;50.108;13.712;2023-09-18T11:50:45;5.90;;;3.58;;
59830;SDS011;45711;50.108;13.712;2023-09-18T11:53:15;7.03;;;3.58;;
59830;SDS011;45711;50.108;13.712;2023-09-18T11:55:43;9.35;;;4.40;;
59830;SDS011;45711;50.108;13.712;2023-09-18T11:58:09;4.38;;;3.50;;
59830;SDS011;45711;50.108;13.712;2023-09-18T12:00:37;7.47;;;4.30;;
59830;SDS011;45711;50.108;13.712;2023-09-18T12:03:15;4.95;;;3.50;;
59830;SDS011;45711;50.108;13.712;2023-09-18T12:05:56;4.78;;;3.40;;
59830;SDS011;45711;50.108;13.712;2023-09-18T12:08:25;7.80;;;3.58;;
59830;SDS011;45711;50.108;13.712;2023-09-18T12:10:51;5.88;;;3.55;;
59830;SDS011;45711;50.108;13.712;2023-09-18T12:13:18;3.97;;;3.53;;
59830;SDS011;45711;50.108;13.712;2023-09-18T12:15:43;5.93;;;3.35;;
59830;SDS011;45711;50.108;13.712;2023-09-18T12:18:09;7.03;;;3.67;;
59830;SDS011;45711;50.108;13.712;2023-09-18T12:20:37;6.75;;;3.78;;
59830;SDS011;45711;50.108;13.712;2023-09-18T12:23:03;5.20;;;3.35;;
59830;SDS011;45711;50.108;13.712;2023-09-18T12:25:30;6.47;;;3.35;;
59830;SDS011;45711;50.108;13.712;2023-09-18T12:27:56;5.68;;;3.30;;
59830;SDS011;45711;50.108;13.712;2023-09-18T12:30:22;4.07;;;2.95;;
59830;SDS011;45711;50.108;13.712;2023-09-18T12:32:48;10.68;;;3.72;;
59830;SDS011;45711;50.108;13.712;2023-09-18T12:35:14;3.75;;;3.45;;
59830;SDS011;45711;50.108;13.712;2023-09-18T12:37:40;4.47;;;3.00;;
59830;SDS011;45711;50.108;13.712;2023-09-18T12:40:06;7.35;;;3.17;;
59830;SDS011;45711;50.108;13.712;2023-09-18T12:42:46;6.90;;;3.10;;
59830;SDS011;45711;50.108;13.712;2023-09-18T12:45:12;7.00;;;3.35;;
59830;SDS011;45711;50.108;13.712;2023-09-18T12:47:38;6.05;;;3.40;;
59830;SDS011;45711;50.108;13.712;2023-09-18T12:50:04;6.25;;;3.65;;
59830;SDS011;45711;50.108;13.712;2023-09-18T12:52:36;5.38;;;3.30;;
59830;SDS011;45711;50.108;13.712;2023-09-18T12:55:01;7.30;;;3.78;;
59830;SDS011;45711;50.108;13.712;2023-09-18T12:57:29;4.22;;;3.45;;
59830;SDS011;45711;50.108;13.712;2023-09-18T12:59:56;7.82;;;3.30;;
59830;SDS011;45711;50.108;13.712;2023-09-18T13:02:22;8.27;;;3.40;;
59830;SDS011;45711;50.108;13.712;2023-09-18T13:04:51;3.65;;;3.10;;
59830;SDS011;45711;50.108;13.712;2023-09-18T13:07:17;10.30;;;3.60;;
59830;SDS011;45711;50.108;13.712;2023-09-18T13:09:57;6.32;;;3.05;;
59830;SDS011;45711;50.108;13.712;2023-09-18T13:12:24;6.70;;;3.30;;
59830;SDS011;45711;50.108;13.712;2023-09-18T13:15:00;9.48;;;3.13;;
59830;SDS011;45711;50.108;13.712;2023-09-18T13:17:37;9.85;;;3.50;;
59830;SDS011;45711;50.108;13.712;2023-09-18T13:20:06;6.13;;;3.50;;
59830;SDS011;45711;50.108;13.712;2023-09-18T13:22:35;3.47;;;3.05;;
59830;SDS011;45711;50.108;13.712;2023-09-18T13:25:00;9.25;;;3.53;;
59830;SDS011;45711;50.108;13.712;2023-09-18T13:27:26;7.68;;;3.78;;
59830;SDS011;45711;50.108;13.712;2023-09-18T13:29:52;12.38;;;3.55;;
59830;SDS011;45711;50.108;13.712;2023-09-18T13:32:19;4.18;;;3.20;;
59830;SDS011;45711;50.108;13.712;2023-09-18T13:34:46;9.20;;;4.43;;
59830;SDS011;45711;50.108;13.712;2023-09-18T13:37:12;5.15;;;3.15;;
59830;SDS011;45711;50.108;13.712;2023-09-18T13:39:39;8.05;;;3.05;;
59830;SDS011;45711;50.108;13.712;2023-09-18T13:42:05;8.13;;;3.65;;
59830;SDS011;45711;50.108;13.712;2023-09-18T13:44:30;7.38;;;3.40;;
59830;SDS011;45711;50.108;13.712;2023-09-18T13:46:56;6.88;;;3.17;;
59830;SDS011;45711;50.108;13.712;2023-09-18T13:49:25;8.10;;;2.90;;
59830;SDS011;45711;50.108;13.712;2023-09-18T13:51:50;4.43;;;3.20;;
59830;SDS011;45711;50.108;13.712;2023-09-18T13:54:16;7.82;;;3.67;;
59830;SDS011;45711;50.108;13.712;2023-09-18T13:56:43;7.47;;;3.33;;
59830;SDS011;45711;50.108;13.712;2023-09-18T13:59:09;7.38;;;3.10;;
59830;SDS011;45711;50.108;13.712;2023-09-18T14:01:35;5.15;;;3.00;;
59830;SDS011;45711;50.108;13.712;2023-09-18T14:04:00;8.48;;;3.40;;
59830;SDS011;45711;50.108;13.712;2023-09-18T14:06:27;5.40;;;3.35;;
59830;SDS011;45711;50.108;13.712;2023-09-18T14:08:53;4.80;;;3.20;;
59830;SDS011;45711;50.108;13.712;2023-09-18T14:11:18;4.70;;;2.85;;
59830;SDS011;45711;50.108;13.712;2023-09-18T14:13:44;3.75;;;3.25;;
59830;SDS011;45711;50.108;13.712;2023-09-18T14:16:10;4.03;;;3.10;;
59830;SDS011;45711;50.108;13.712;2023-09-18T14:18:36;5.18;;;3.38;;
59830;SDS011;45711;50.108;13.712;2023-09-18T14:21:01;4.70;;;3.38;;
59830;SDS011;45711;50.108;13.712;2023-09-18T14:23:28;12.10;;;4.07;;
59830;SDS011;45711;50.108;13.712;2023-09-18T14:25:54;4.32;;;3.13;;
59830;SDS011;45711;50.108;13.712;2023-09-18T14:28:20;3.67;;;3.08;;
59830;SDS011;45711;50.108;13.712;2023-09-18T14:30:46;4.95;;;2.88;;
59830;SDS011;45711;50.108;13.712;2023-09-18T14:33:11;6.82;;;3.22;;